Racecast

Mark Temple

Alabama-Huntsville (AL) · Sr · NCAA DIISOUTHGULF SOUTH · Compare head to head

Athlete rating 104.7 2011 TF season
Best race 116.1 XC
Races 38
Seasons 6 2006 — 2011

RankedNation #6749·NCAA DII #1562·SOUTH #398·GULF SOUTH #21·AL #61·Team #7 ?

Rating scale ?

Cross Country

2010 XC 111.2

Alabama-Huntsville (AL) · Grade Sr

Date Meet Event Result Place Rating Difficulty PR/SR Flags
2010-11-20 Sharon Johnston Park 10000m 32:56.5 11th · 1st on team 113.7 -0.091 ★CR SR CSR
2010-11-06 Veteran's Park 8000m 26:28.9 9th · 2nd on team 110.2 -0.123 CSR
2010-10-23 Oakville Indian Mounds Park 8000m 26:09.3 3rd · 2nd on team 110.3 -0.138 ★CR SR CSR
2010-10-16 University of AR XC course 10000m 33:11.8 202nd · 2nd on team 111.4 -0.096 ★CR SR CSR
2010-10-02 EP Tom Sawyer State Park 8000m 26:57.9 132nd · 3rd on team 107.0 -0.142 SR CSR
2010-09-10 Moccasin Bend Course 5000m 17:10 30th · 3rd on team 114.9 -0.027 ★PR ★CR SR CSR RSR

2008 XC 112.5

Alabama-Huntsville (AL) · Grade Jr

Date Meet Event Result Place Rating Difficulty PR/SR Flags
2008-11-22 Cooper's Lake Campground 10000m 34:00 139th · 2nd on team 112.3 -0.082 ★CR CSR
2008-11-08 Wyldewood Retreat Center 10000m 32:40 12th · 1st on team 116.1 -0.088 ★PR ★CR ★R SR CSR RSR
2008-10-24 Veteran's Park 8000m 26:24.1 10th · 2nd on team 111.6 -0.123 ★CR CSR
2008-10-04 EP Tom Sawyer State Park 8000m 25:30.2 79th · 1st on team 114.3 -0.142 ★PR ★CR SR CSR
2008-09-20 Sharon Johnston Park 8000m 26:11.1 1st · 1st on team 115.7 -0.101 ★CR R SR CSR RSR
2008-09-13 Mike Rose Soccer Complex 8000m 27:25.7 52nd · 4th on team 104.7 -0.152 SR CSR RSR

2007 XC 109.6

Alabama-Huntsville (AL) · Grade So

Date Meet Event Result Place Rating Difficulty PR/SR Flags
2007-11-17 Tom Rutledge Cross Country Course 10000m 34:02.4 143rd · 2nd on team 107.8 -0.117 PR ★CR SR CSR
2007-10-06 Mike Rose Soccer Complex 8000m 26:08.9 55th · 3rd on team 111.5 -0.152 SR CSR RSR

2006 XC 112.6

Alabama-Huntsville (AL) · Grade Fr

Date Meet Event Result Place Rating Difficulty PR/SR Flags
2006-10-07 Mike Rose Soccer Complex 8000m 25:42.6 31st · 2nd on team 112.6 -0.152 PR ★CR R SR CSR RSR

Track & Field

2011 TF 100.7

Alabama-Huntsville (AL) · Grade Sr

Date Meet Event Result Place Rating Difficulty PR/SR Flags
2011-04-23 DII South Region Championship 5000m 18:12.84 13th · 4th on team 93.4 -0.034
2011-04-23 DII South Region Championship 10-km 35:24.72 3rd · 1st on team 97.9 -0.034
2011-04-16 War Eagle Invitational 5000m 15:29.38 17th · 1st on team 108.9 -0.041 ★PR SR RSR
2011-04-01 Bulldog Friday Nite Invite 5000m 15:32.96 10th · 3rd on team 106.9 -0.038 PR SR RSR
2011-03-27 Alabama Relays 10-km 35:24.28 3rd · 2nd on team 94.2 -0.038 SR
2011-03-12 Southern Invitational 5000m 16:46.27 26th · 3rd on team 100.9 -0.037
2011-03-05 Bulldog Relays 3000m 9:39.34 7th · 4th on team 99.7 -0.030
2011-02-26 Sewanee Indoor Invitational 3000m 9:33.14 2nd · 1st on team 101.1 -0.040 SR
2011-01-29 TSU Invite 5000m 16:20.41 7th · 2nd on team 103.3 -0.047 SR RSR

2010 TF

Unattached (TX) · Grade Senior

Date Meet Event Result Place Rating Difficulty PR/SR Flags
2010-03-06 Meet results → Men's 3000 Meters Division 3 9:39.47 2nd · 2nd on team ★PR SR

2009 TF 105.1

Alabama-Huntsville (AL) · Grade Jr

Date Meet Event Result Place Rating Difficulty PR/SR Flags
2009-04-18 Race results → 5000m 15:47.12 11th · 2nd on team PR SR
2009-04-11 Sea Ray Relays 10-km 32:34.85 9th · 2nd on team 102.0 -0.042
2009-03-29 Alabama Relays 10-km 32:26.55 1st · 1st on team 105.5 -0.038 ★PR SR
2009-03-21 Spring Fling 3000m 8:58.28 4th · 2nd on team 106.0 -0.038 ★PR SR
2009-03-07 Race results → 3000m 9:18.43 1st · 1st on team
2009-02-28 Sewanee Indoor Invitational 3000m 9:07.12 3rd · 1st on team 105.7 -0.040 PR SR
2009-02-14 DePauw Indoor Invitational 5000m 15:52.89 10th · 1st on team 106.6 -0.042 PR SR RSR
2009-02-14 DePauw Indoor Invitational 3000m 9:11.64 10th · 3rd on team 104.0 -0.042 PR SR
2009-01-31 TSU Invite 5000m 15:56.54 3rd · 2nd on team 106.2 -0.047 PR SR RSR

2008 TF 103.0

Alabama-Huntsville (AL) · Grade So

Date Meet Event Result Place Rating Difficulty PR/SR Flags
2008-04-12 Sea-Ray Relays 10-km 33:15.26 18th · 1st on team 103.0 -0.042 PR SR RSR
2008-02-16 Meet results → Men's 3000 Meters 9:14.88 5th · 2nd on team ★PR SR
2008-02-16 Meet results → Men's 5000 Meters 15:54.64 9th · 1st on team ★PR SR
2008-02-09 Meet results → Men's 3000 Meters 9:18.34 4th · 1st on team PR SR